Terminal Aerodrome Forecast
Issued by NWS

Home | Current Version | Previous Version | Text Only | Print | Product List | Glossary On
Versions: 1 2 3 4 5 6 7 8 9 10 11 12 13 14 15
000
FTUS45 KRIW 202325
TAFCOD
TAF
KCOD 202325Z 2100/2124 25010G20KT P6SM SCT070 BKN110 WS017/26050KT
     FM210400 VRB06KT P6SM SCT060 BKN100
     FM212000 24012G18KT P6SM BKN100
      AMD LTD TO CLD VIS AND WIND=

USA.gov is the U.S. government's official web portal to all federal, state and local government web resources and services.